sensor_id;sensor_type;location;lat;lon;timestamp;pressure;altitude;pressure_sealevel;temperature;humidity
81905;BME280;71370;-33.792;151.032;2024-03-07T00:00:56;101653.25;;;25.94;66.02
81905;BME280;71370;-33.792;151.032;2024-03-07T00:02:05;101648.15;;;25.95;65.85
81905;BME280;71370;-33.792;151.032;2024-03-07T00:03:13;101644.54;;;25.98;65.83
81905;BME280;71370;-33.792;151.032;2024-03-07T00:04:20;101646.57;;;26.03;66.07
81905;BME280;71370;-33.792;151.032;2024-03-07T00:05:28;101645.09;;;26.09;65.74
81905;BME280;71370;-33.792;151.032;2024-03-07T00:06:35;101644.65;;;26.16;65.41
81905;BME280;71370;-33.792;151.032;2024-03-07T00:07:43;101642.09;;;26.22;64.93
81905;BME280;71370;-33.792;151.032;2024-03-07T00:08:50;101639.92;;;26.28;64.70
81905;BME280;71370;-33.792;151.032;2024-03-07T00:09:57;101642.02;;;26.31;64.75
81905;BME280;71370;-33.792;151.032;2024-03-07T00:11:05;101646.95;;;26.36;64.23
81905;BME280;71370;-33.792;151.032;2024-03-07T00:12:13;101642.70;;;26.40;63.97
81905;BME280;71370;-33.792;151.032;2024-03-07T00:13:20;101643.52;;;26.45;63.56
81905;BME280;71370;-33.792;151.032;2024-03-07T00:14:28;101642.14;;;26.49;63.61
81905;BME280;71370;-33.792;151.032;2024-03-07T00:15:35;101641.41;;;26.54;63.89
81905;BME280;71370;-33.792;151.032;2024-03-07T00:16:43;101637.79;;;26.60;63.64
81905;BME280;71370;-33.792;151.032;2024-03-07T00:17:50;101642.45;;;26.67;63.79
81905;BME280;71370;-33.792;151.032;2024-03-07T00:18:57;101643.29;;;26.73;63.73
81905;BME280;71370;-33.792;151.032;2024-03-07T00:20:05;101642.88;;;26.79;63.07
81905;BME280;71370;-33.792;151.032;2024-03-07T00:21:15;101646.55;;;26.84;62.44
81905;BME280;71370;-33.792;151.032;2024-03-07T00:22:23;101643.93;;;26.88;62.45
81905;BME280;71370;-33.792;151.032;2024-03-07T00:23:33;101644.31;;;26.92;63.12
81905;BME280;71370;-33.792;151.032;2024-03-07T00:24:43;101641.78;;;26.95;62.92
81905;BME280;71370;-33.792;151.032;2024-03-07T00:25:53;101650.55;;;27.04;61.40
81905;BME280;71370;-33.792;151.032;2024-03-07T00:27:00;101651.60;;;27.05;61.13
81905;BME280;71370;-33.792;151.032;2024-03-07T00:28:08;101651.58;;;27.05;61.33
81905;BME280;71370;-33.792;151.032;2024-03-07T00:29:15;101650.83;;;27.05;61.14
81905;BME280;71370;-33.792;151.032;2024-03-07T00:30:23;101650.75;;;27.06;61.47
81905;BME280;71370;-33.792;151.032;2024-03-07T00:31:30;101648.70;;;27.10;61.64
81905;BME280;71370;-33.792;151.032;2024-03-07T00:32:37;101651.73;;;27.13;61.18
81905;BME280;71370;-33.792;151.032;2024-03-07T00:33:45;101647.45;;;27.15;61.09
81905;BME280;71370;-33.792;151.032;2024-03-07T00:34:53;101649.84;;;27.17;60.83
81905;BME280;71370;-33.792;151.032;2024-03-07T00:36:00;101650.11;;;27.18;61.08
81905;BME280;71370;-33.792;151.032;2024-03-07T00:37:07;101658.23;;;27.21;61.18
81905;BME280;71370;-33.792;151.032;2024-03-07T00:38:15;101656.21;;;27.22;60.92
81905;BME280;71370;-33.792;151.032;2024-03-07T00:39:22;101651.55;;;27.18;60.73
81905;BME280;71370;-33.792;151.032;2024-03-07T00:40:31;101653.68;;;27.19;60.98
81905;BME280;71370;-33.792;151.032;2024-03-07T00:41:41;101652.90;;;27.22;61.15
81905;BME280;71370;-33.792;151.032;2024-03-07T00:42:48;101658.39;;;27.27;60.61
81905;BME280;71370;-33.792;151.032;2024-03-07T00:43:57;101653.74;;;27.29;59.84
81905;BME280;71370;-33.792;151.032;2024-03-07T00:45:04;101654.39;;;27.30;60.26
81905;BME280;71370;-33.792;151.032;2024-03-07T00:46:12;101656.39;;;27.32;60.25
81905;BME280;71370;-33.792;151.032;2024-03-07T00:47:19;101652.20;;;27.35;60.24
81905;BME280;71370;-33.792;151.032;2024-03-07T00:48:26;101650.59;;;27.38;60.27
81905;BME280;71370;-33.792;151.032;2024-03-07T00:49:35;101649.39;;;27.40;60.55
81905;BME280;71370;-33.792;151.032;2024-03-07T00:50:43;101651.46;;;27.44;60.04
81905;BME280;71370;-33.792;151.032;2024-03-07T00:51:50;101651.05;;;27.47;60.44
81905;BME280;71370;-33.792;151.032;2024-03-07T00:52:57;101649.75;;;27.50;60.31
81905;BME280;71370;-33.792;151.032;2024-03-07T00:54:05;101643.88;;;27.54;60.32
81905;BME280;71370;-33.792;151.032;2024-03-07T00:55:13;101651.87;;;27.58;60.08
81905;BME280;71370;-33.792;151.032;2024-03-07T00:56:21;101648.39;;;27.61;59.97
81905;BME280;71370;-33.792;151.032;2024-03-07T00:57:29;101646.02;;;27.62;59.99
81905;BME280;71370;-33.792;151.032;2024-03-07T00:58:36;101648.98;;;27.66;59.54
81905;BME280;71370;-33.792;151.032;2024-03-07T00:59:43;101650.85;;;27.68;59.34
81905;BME280;71370;-33.792;151.032;2024-03-07T01:00:50;101649.33;;;27.69;59.03
81905;BME280;71370;-33.792;151.032;2024-03-07T01:01:57;101649.56;;;27.68;58.97
81905;BME280;71370;-33.792;151.032;2024-03-07T01:03:05;101642.25;;;27.69;59.05
81905;BME280;71370;-33.792;151.032;2024-03-07T01:04:12;101640.67;;;27.71;59.22
81905;BME280;71370;-33.792;151.032;2024-03-07T01:05:20;101639.45;;;27.75;59.72
81905;BME280;71370;-33.792;151.032;2024-03-07T01:06:27;101632.94;;;27.81;59.06
81905;BME280;71370;-33.792;151.032;2024-03-07T01:07:34;101631.02;;;27.82;59.29
81905;BME280;71370;-33.792;151.032;2024-03-07T01:08:43;101632.61;;;27.85;59.38
81905;BME280;71370;-33.792;151.032;2024-03-07T01:09:50;101630.89;;;27.89;59.04
81905;BME280;71370;-33.792;151.032;2024-03-07T01:10:58;101631.34;;;27.93;59.07
81905;BME280;71370;-33.792;151.032;2024-03-07T01:12:05;101628.86;;;27.97;59.20
81905;BME280;71370;-33.792;151.032;2024-03-07T01:13:12;101632.01;;;28.01;58.55
81905;BME280;71370;-33.792;151.032;2024-03-07T01:14:25;101628.36;;;28.07;58.44
81905;BME280;71370;-33.792;151.032;2024-03-07T01:15:33;101625.18;;;28.11;58.57
81905;BME280;71370;-33.792;151.032;2024-03-07T01:16:41;101623.97;;;28.14;58.39
81905;BME280;71370;-33.792;151.032;2024-03-07T01:17:48;101622.16;;;28.20;58.05
81905;BME280;71370;-33.792;151.032;2024-03-07T01:18:55;101625.46;;;28.22;57.88
81905;BME280;71370;-33.792;151.032;2024-03-07T01:20:02;101633.16;;;28.25;57.75
81905;BME280;71370;-33.792;151.032;2024-03-07T01:21:10;101627.86;;;28.24;57.64
81905;BME280;71370;-33.792;151.032;2024-03-07T01:22:17;101630.36;;;28.19;57.44
81905;BME280;71370;-33.792;151.032;2024-03-07T01:23:25;101619.69;;;28.16;57.87
81905;BME280;71370;-33.792;151.032;2024-03-07T01:24:32;101623.33;;;28.11;57.82
81905;BME280;71370;-33.792;151.032;2024-03-07T01:25:40;101626.02;;;28.04;58.23
81905;BME280;71370;-33.792;151.032;2024-03-07T01:26:47;101624.76;;;28.02;58.59
81905;BME280;71370;-33.792;151.032;2024-03-07T01:27:54;101624.16;;;28.03;58.41
81905;BME280;71370;-33.792;151.032;2024-03-07T01:29:02;101623.70;;;28.01;58.38
81905;BME280;71370;-33.792;151.032;2024-03-07T01:30:09;101621.75;;;28.01;58.58
81905;BME280;71370;-33.792;151.032;2024-03-07T01:31:17;101620.42;;;27.99;58.69
81905;BME280;71370;-33.792;151.032;2024-03-07T01:32:24;101622.45;;;27.96;58.48
81905;BME280;71370;-33.792;151.032;2024-03-07T01:33:32;101618.80;;;27.91;58.44
81905;BME280;71370;-33.792;151.032;2024-03-07T01:34:39;101617.59;;;27.93;58.50
81905;BME280;71370;-33.792;151.032;2024-03-07T01:35:47;101615.76;;;27.96;58.62
81905;BME280;71370;-33.792;151.032;2024-03-07T01:36:54;101618.53;;;27.95;58.81
81905;BME280;71370;-33.792;151.032;2024-03-07T01:38:02;101616.05;;;27.97;58.69
81905;BME280;71370;-33.792;151.032;2024-03-07T01:39:09;101617.22;;;27.96;58.51
81905;BME280;71370;-33.792;151.032;2024-03-07T01:40:17;101614.23;;;27.92;58.64
81905;BME280;71370;-33.792;151.032;2024-03-07T01:41:24;101620.68;;;27.93;58.38
81905;BME280;71370;-33.792;151.032;2024-03-07T01:42:32;101614.16;;;27.96;58.45
81905;BME280;71370;-33.792;151.032;2024-03-07T01:43:39;101617.91;;;27.99;58.76
81905;BME280;71370;-33.792;151.032;2024-03-07T01:44:47;101614.66;;;28.04;58.43
81905;BME280;71370;-33.792;151.032;2024-03-07T01:45:57;101615.67;;;28.05;58.31
81905;BME280;71370;-33.792;151.032;2024-03-07T01:47:08;101617.38;;;28.04;58.59
81905;BME280;71370;-33.792;151.032;2024-03-07T01:48:25;101618.30;;;28.03;58.32
81905;BME280;71370;-33.792;151.032;2024-03-07T01:49:33;101609.97;;;28.06;57.96
81905;BME280;71370;-33.792;151.032;2024-03-07T01:50:40;101613.98;;;28.10;58.46
81905;BME280;71370;-33.792;151.032;2024-03-07T01:51:48;101613.25;;;28.15;58.45
81905;BME280;71370;-33.792;151.032;2024-03-07T01:52:55;101618.91;;;28.17;58.10
81905;BME280;71370;-33.792;151.032;2024-03-07T01:54:03;101617.91;;;28.21;57.69
81905;BME280;71370;-33.792;151.032;2024-03-07T01:55:12;101617.60;;;28.25;57.88
81905;BME280;71370;-33.792;151.032;2024-03-07T01:56:20;101615.80;;;28.27;57.90
81905;BME280;71370;-33.792;151.032;2024-03-07T01:57:28;101621.01;;;28.25;58.03
81905;BME280;71370;-33.792;151.032;2024-03-07T01:58:36;101618.02;;;28.17;57.59
81905;BME280;71370;-33.792;151.032;2024-03-07T01:59:44;101616.14;;;28.08;57.83
81905;BME280;71370;-33.792;151.032;2024-03-07T02:00:51;101616.90;;;28.08;57.98
81905;BME280;71370;-33.792;151.032;2024-03-07T02:01:59;101619.81;;;28.10;58.09
81905;BME280;71370;-33.792;151.032;2024-03-07T02:03:09;101615.33;;;28.07;58.24
81905;BME280;71370;-33.792;151.032;2024-03-07T02:04:16;101615.89;;;28.02;58.33
81905;BME280;71370;-33.792;151.032;2024-03-07T02:05:25;101620.29;;;28.01;58.69
81905;BME280;71370;-33.792;151.032;2024-03-07T02:06:35;101618.68;;;28.01;58.77
81905;BME280;71370;-33.792;151.032;2024-03-07T02:07:43;101620.80;;;28.06;59.02
81905;BME280;71370;-33.792;151.032;2024-03-07T02:08:51;101621.43;;;28.15;58.21
81905;BME280;71370;-33.792;151.032;2024-03-07T02:10:04;101618.05;;;28.22;58.17
81905;BME280;71370;-33.792;151.032;2024-03-07T02:11:12;101625.06;;;28.29;57.34
81905;BME280;71370;-33.792;151.032;2024-03-07T02:12:20;101622.06;;;28.36;57.63
81905;BME280;71370;-33.792;151.032;2024-03-07T02:13:27;101619.86;;;28.46;57.41
81905;BME280;71370;-33.792;151.032;2024-03-07T02:14:35;101617.96;;;28.57;57.29
81905;BME280;71370;-33.792;151.032;2024-03-07T02:15:43;101622.63;;;28.69;57.27
81905;BME280;71370;-33.792;151.032;2024-03-07T02:16:50;101620.61;;;28.79;57.14
81905;BME280;71370;-33.792;151.032;2024-03-07T02:17:58;101624.19;;;28.82;56.64
81905;BME280;71370;-33.792;151.032;2024-03-07T02:19:05;101619.92;;;28.79;56.93
81905;BME280;71370;-33.792;151.032;2024-03-07T02:20:15;101623.31;;;28.77;56.82
81905;BME280;71370;-33.792;151.032;2024-03-07T02:21:22;101626.00;;;28.75;56.69
81905;BME280;71370;-33.792;151.032;2024-03-07T02:22:30;101631.34;;;28.71;57.15
81905;BME280;71370;-33.792;151.032;2024-03-07T02:23:38;101634.48;;;28.70;57.13
81905;BME280;71370;-33.792;151.032;2024-03-07T02:24:45;101628.23;;;28.72;57.14
81905;BME280;71370;-33.792;151.032;2024-03-07T02:25:53;101623.61;;;28.76;56.86
81905;BME280;71370;-33.792;151.032;2024-03-07T02:27:01;101631.34;;;28.81;56.86
81905;BME280;71370;-33.792;151.032;2024-03-07T02:28:08;101629.09;;;28.84;56.45
81905;BME280;71370;-33.792;151.032;2024-03-07T02:29:16;101623.56;;;28.90;56.71
81905;BME280;71370;-33.792;151.032;2024-03-07T02:30:23;101625.70;;;28.98;57.35
81905;BME280;71370;-33.792;151.032;2024-03-07T02:31:30;101621.52;;;29.07;56.56
81905;BME280;71370;-33.792;151.032;2024-03-07T02:32:47;101621.72;;;29.12;56.92
81905;BME280;71370;-33.792;151.032;2024-03-07T02:34:04;101622.80;;;29.22;56.60
81905;BME280;71370;-33.792;151.032;2024-03-07T02:35:14;101624.09;;;29.26;56.33
81905;BME280;71370;-33.792;151.032;2024-03-07T02:36:22;101623.10;;;29.29;56.40
81905;BME280;71370;-33.792;151.032;2024-03-07T02:37:31;101622.42;;;29.28;56.61
81905;BME280;71370;-33.792;151.032;2024-03-07T02:38:39;101621.97;;;29.32;56.59
81905;BME280;71370;-33.792;151.032;2024-03-07T02:39:46;101624.65;;;29.30;55.99
81905;BME280;71370;-33.792;151.032;2024-03-07T02:40:53;101629.91;;;29.26;55.56
81905;BME280;71370;-33.792;151.032;2024-03-07T02:42:01;101624.40;;;29.22;55.69
81905;BME280;71370;-33.792;151.032;2024-03-07T02:43:09;101623.23;;;29.19;55.86
81905;BME280;71370;-33.792;151.032;2024-03-07T02:44:17;101628.64;;;29.14;56.28
81905;BME280;71370;-33.792;151.032;2024-03-07T02:45:24;101628.16;;;29.08;56.59
81905;BME280;71370;-33.792;151.032;2024-03-07T02:46:32;101631.95;;;29.04;56.72
81905;BME280;71370;-33.792;151.032;2024-03-07T02:47:39;101629.34;;;29.02;56.73
81905;BME280;71370;-33.792;151.032;2024-03-07T02:48:48;101624.52;;;28.97;56.48
81905;BME280;71370;-33.792;151.032;2024-03-07T02:49:56;101630.83;;;28.90;56.36
81905;BME280;71370;-33.792;151.032;2024-03-07T02:51:04;101623.25;;;28.85;56.07
81905;BME280;71370;-33.792;151.032;2024-03-07T02:52:15;101624.25;;;28.86;56.40
81905;BME280;71370;-33.792;151.032;2024-03-07T02:53:22;101622.64;;;28.90;56.57
81905;BME280;71370;-33.792;151.032;2024-03-07T02:54:29;101618.50;;;28.97;56.41
81905;BME280;71370;-33.792;151.032;2024-03-07T02:55:39;101615.70;;;29.03;56.45
81905;BME280;71370;-33.792;151.032;2024-03-07T02:56:47;101617.91;;;29.07;56.44
81905;BME280;71370;-33.792;151.032;2024-03-07T02:57:54;101615.95;;;29.14;56.69
81905;BME280;71370;-33.792;151.032;2024-03-07T02:59:05;101619.34;;;29.22;56.60
81905;BME280;71370;-33.792;151.032;2024-03-07T03:00:12;101618.11;;;29.31;55.66
81905;BME280;71370;-33.792;151.032;2024-03-07T03:01:26;101614.73;;;29.35;55.54
81905;BME280;71370;-33.792;151.032;2024-03-07T03:02:33;101609.81;;;29.39;55.87
81905;BME280;71370;-33.792;151.032;2024-03-07T03:03:40;101612.85;;;29.40;54.74
81905;BME280;71370;-33.792;151.032;2024-03-07T03:04:48;101613.06;;;29.42;54.61
81905;BME280;71370;-33.792;151.032;2024-03-07T03:05:55;101606.91;;;29.46;55.20
81905;BME280;71370;-33.792;151.032;2024-03-07T03:07:03;101604.37;;;29.48;55.11
81905;BME280;71370;-33.792;151.032;2024-03-07T03:08:10;101605.48;;;29.46;54.98
81905;BME280;71370;-33.792;151.032;2024-03-07T03:09:20;101604.62;;;29.45;54.83
81905;BME280;71370;-33.792;151.032;2024-03-07T03:10:28;101602.21;;;29.46;54.52
81905;BME280;71370;-33.792;151.032;2024-03-07T03:11:39;101597.54;;;29.45;54.45
81905;BME280;71370;-33.792;151.032;2024-03-07T03:12:47;101602.41;;;29.39;54.72
81905;BME280;71370;-33.792;151.032;2024-03-07T03:13:54;101599.67;;;29.28;55.13
81905;BME280;71370;-33.792;151.032;2024-03-07T03:15:02;101607.48;;;29.21;55.57
81905;BME280;71370;-33.792;151.032;2024-03-07T03:16:12;101604.38;;;29.16;55.59
81905;BME280;71370;-33.792;151.032;2024-03-07T03:17:19;101613.45;;;29.09;55.79
81905;BME280;71370;-33.792;151.032;2024-03-07T03:18:27;101602.23;;;29.06;55.97
81905;BME280;71370;-33.792;151.032;2024-03-07T03:19:35;101603.58;;;29.05;56.05
81905;BME280;71370;-33.792;151.032;2024-03-07T03:20:42;101602.94;;;29.06;55.98
81905;BME280;71370;-33.792;151.032;2024-03-07T03:21:50;101603.75;;;29.13;56.25
81905;BME280;71370;-33.792;151.032;2024-03-07T03:22:57;101599.48;;;29.14;56.21
81905;BME280;71370;-33.792;151.032;2024-03-07T03:24:05;101603.30;;;29.11;56.49
81905;BME280;71370;-33.792;151.032;2024-03-07T03:25:13;101600.95;;;29.14;56.30
81905;BME280;71370;-33.792;151.032;2024-03-07T03:26:21;101598.15;;;29.24;56.20
81905;BME280;71370;-33.792;151.032;2024-03-07T03:27:28;101598.96;;;29.30;55.77
81905;BME280;71370;-33.792;151.032;2024-03-07T03:28:35;101593.30;;;29.26;55.71
81905;BME280;71370;-33.792;151.032;2024-03-07T03:29:42;101594.91;;;29.24;55.88
81905;BME280;71370;-33.792;151.032;2024-03-07T03:30:50;101592.92;;;29.33;55.95
81905;BME280;71370;-33.792;151.032;2024-03-07T03:31:57;101595.39;;;29.43;55.52
81905;BME280;71370;-33.792;151.032;2024-03-07T03:33:05;101586.78;;;29.44;55.10
81905;BME280;71370;-33.792;151.032;2024-03-07T03:34:13;101591.96;;;29.43;55.21
81905;BME280;71370;-33.792;151.032;2024-03-07T03:35:20;101589.84;;;29.38;55.37
81905;BME280;71370;-33.792;151.032;2024-03-07T03:36:27;101583.50;;;29.31;55.83
81905;BME280;71370;-33.792;151.032;2024-03-07T03:37:35;101583.65;;;29.24;55.77
81905;BME280;71370;-33.792;151.032;2024-03-07T03:38:42;101586.41;;;29.22;55.90
81905;BME280;71370;-33.792;151.032;2024-03-07T03:39:49;101585.32;;;29.22;55.97
81905;BME280;71370;-33.792;151.032;2024-03-07T03:40:56;101589.29;;;29.17;55.93
81905;BME280;71370;-33.792;151.032;2024-03-07T03:42:04;101591.44;;;29.12;56.35
81905;BME280;71370;-33.792;151.032;2024-03-07T03:43:13;101593.55;;;29.06;56.35
81905;BME280;71370;-33.792;151.032;2024-03-07T03:44:21;101591.95;;;28.99;56.80
81905;BME280;71370;-33.792;151.032;2024-03-07T03:45:29;101594.90;;;28.93;56.36
81905;BME280;71370;-33.792;151.032;2024-03-07T03:46:38;101596.59;;;28.95;56.48
81905;BME280;71370;-33.792;151.032;2024-03-07T03:47:45;101593.63;;;29.01;56.26
81905;BME280;71370;-33.792;151.032;2024-03-07T03:48:52;101591.81;;;28.98;56.30
81905;BME280;71370;-33.792;151.032;2024-03-07T03:50:00;101589.73;;;28.95;56.27
81905;BME280;71370;-33.792;151.032;2024-03-07T03:51:10;101593.40;;;28.94;56.29
81905;BME280;71370;-33.792;151.032;2024-03-07T03:52:19;101591.10;;;28.87;56.18
81905;BME280;71370;-33.792;151.032;2024-03-07T03:53:26;101593.11;;;28.79;56.32
81905;BME280;71370;-33.792;151.032;2024-03-07T03:54:33;101595.89;;;28.71;56.37
81905;BME280;71370;-33.792;151.032;2024-03-07T03:55:40;101593.67;;;28.65;57.08
81905;BME280;71370;-33.792;151.032;2024-03-07T03:56:47;101589.87;;;28.67;57.19
81905;BME280;71370;-33.792;151.032;2024-03-07T03:57:54;101586.85;;;28.71;57.16
81905;BME280;71370;-33.792;151.032;2024-03-07T03:59:01;101588.25;;;28.74;56.85
81905;BME280;71370;-33.792;151.032;2024-03-07T04:00:10;101583.52;;;28.82;56.90
81905;BME280;71370;-33.792;151.032;2024-03-07T04:01:20;101581.50;;;28.91;56.58
81905;BME280;71370;-33.792;151.032;2024-03-07T04:02:27;101576.63;;;28.98;56.48
81905;BME280;71370;-33.792;151.032;2024-03-07T04:03:34;101577.04;;;29.07;56.08
81905;BME280;71370;-33.792;151.032;2024-03-07T04:04:41;101570.61;;;29.12;55.96
81905;BME280;71370;-33.792;151.032;2024-03-07T04:05:48;101572.30;;;29.17;55.96
81905;BME280;71370;-33.792;151.032;2024-03-07T04:06:56;101573.88;;;29.19;55.68
81905;BME280;71370;-33.792;151.032;2024-03-07T04:08:03;101570.16;;;29.23;55.79
81905;BME280;71370;-33.792;151.032;2024-03-07T04:09:11;101573.42;;;29.28;55.80
81905;BME280;71370;-33.792;151.032;2024-03-07T04:10:22;101570.27;;;29.26;55.33
81905;BME280;71370;-33.792;151.032;2024-03-07T04:11:29;101572.18;;;29.27;55.50
81905;BME280;71370;-33.792;151.032;2024-03-07T04:12:37;101568.98;;;29.24;55.51
81905;BME280;71370;-33.792;151.032;2024-03-07T04:13:47;101571.75;;;29.19;55.65
81905;BME280;71370;-33.792;151.032;2024-03-07T04:14:54;101569.34;;;29.10;55.45
81905;BME280;71370;-33.792;151.032;2024-03-07T04:16:02;101578.04;;;29.01;55.68
81905;BME280;71370;-33.792;151.032;2024-03-07T04:17:10;101574.52;;;28.95;55.50
81905;BME280;71370;-33.792;151.032;2024-03-07T04:18:20;101572.31;;;28.90;55.68
81905;BME280;71370;-33.792;151.032;2024-03-07T04:19:27;101572.01;;;28.87;55.83
81905;BME280;71370;-33.792;151.032;2024-03-07T04:20:37;101572.97;;;28.87;55.97
81905;BME280;71370;-33.792;151.032;2024-03-07T04:21:45;101573.22;;;28.88;55.86
81905;BME280;71370;-33.792;151.032;2024-03-07T04:22:52;101567.05;;;28.88;55.78
81905;BME280;71370;-33.792;151.032;2024-03-07T04:24:02;101562.73;;;28.90;56.22
81905;BME280;71370;-33.792;151.032;2024-03-07T04:25:09;101564.91;;;28.95;56.14
81905;BME280;71370;-33.792;151.032;2024-03-07T04:26:16;101558.93;;;29.00;56.14
81905;BME280;71370;-33.792;151.032;2024-03-07T04:27:23;101553.72;;;29.01;56.08
81905;BME280;71370;-33.792;151.032;2024-03-07T04:28:32;101560.30;;;29.01;55.92
81905;BME280;71370;-33.792;151.032;2024-03-07T04:29:39;101554.39;;;28.95;56.05
81905;BME280;71370;-33.792;151.032;2024-03-07T04:30:46;101558.79;;;28.92;56.20
81905;BME280;71370;-33.792;151.032;2024-03-07T04:31:55;101550.08;;;28.92;56.31
81905;BME280;71370;-33.792;151.032;2024-03-07T04:33:02;101552.98;;;28.95;56.52
81905;BME280;71370;-33.792;151.032;2024-03-07T04:34:11;101553.48;;;28.97;56.60
81905;BME280;71370;-33.792;151.032;2024-03-07T04:35:18;101547.33;;;29.02;56.56
81905;BME280;71370;-33.792;151.032;2024-03-07T04:36:25;101544.48;;;28.99;56.31
81905;BME280;71370;-33.792;151.032;2024-03-07T04:37:35;101549.29;;;28.96;56.25
81905;BME280;71370;-33.792;151.032;2024-03-07T04:38:45;101556.14;;;28.89;56.49
81905;BME280;71370;-33.792;151.032;2024-03-07T04:39:53;101552.89;;;28.82;56.88
81905;BME280;71370;-33.792;151.032;2024-03-07T04:41:00;101551.83;;;28.75;56.89
81905;BME280;71370;-33.792;151.032;2024-03-07T04:42:08;101553.66;;;28.69;57.19
81905;BME280;71370;-33.792;151.032;2024-03-07T04:43:15;101554.49;;;28.66;57.44
81905;BME280;71370;-33.792;151.032;2024-03-07T04:44:22;101558.16;;;28.61;57.55
81905;BME280;71370;-33.792;151.032;2024-03-07T04:45:30;101558.34;;;28.53;57.72
81905;BME280;71370;-33.792;151.032;2024-03-07T04:46:37;101556.98;;;28.47;57.87
81905;BME280;71370;-33.792;151.032;2024-03-07T04:47:48;101557.14;;;28.43;58.18
81905;BME280;71370;-33.792;151.032;2024-03-07T04:48:55;101557.91;;;28.40;58.12
81905;BME280;71370;-33.792;151.032;2024-03-07T04:50:04;101562.15;;;28.36;58.08
81905;BME280;71370;-33.792;151.032;2024-03-07T04:51:11;101556.25;;;28.33;57.92
81905;BME280;71370;-33.792;151.032;2024-03-07T04:52:19;101558.57;;;28.31;58.23
81905;BME280;71370;-33.792;151.032;2024-03-07T04:53:26;101564.83;;;28.32;58.42
81905;BME280;71370;-33.792;151.032;2024-03-07T04:54:33;101562.84;;;28.34;58.05
81905;BME280;71370;-33.792;151.032;2024-03-07T04:55:40;101561.52;;;28.37;57.97
81905;BME280;71370;-33.792;151.032;2024-03-07T04:56:49;101556.23;;;28.40;57.94
81905;BME280;71370;-33.792;151.032;2024-03-07T04:57:57;101554.66;;;28.44;58.11
81905;BME280;71370;-33.792;151.032;2024-03-07T04:59:04;101557.05;;;28.48;58.19
81905;BME280;71370;-33.792;151.032;2024-03-07T05:00:12;101559.38;;;28.49;58.01
81905;BME280;71370;-33.792;151.032;2024-03-07T05:01:20;101563.89;;;28.47;58.12
81905;BME280;71370;-33.792;151.032;2024-03-07T05:02:28;101565.40;;;28.43;57.86
81905;BME280;71370;-33.792;151.032;2024-03-07T05:03:35;101561.11;;;28.38;58.12
81905;BME280;71370;-33.792;151.032;2024-03-07T05:04:43;101566.05;;;28.32;58.23
81905;BME280;71370;-33.792;151.032;2024-03-07T05:05:50;101566.84;;;28.27;58.21
81905;BME280;71370;-33.792;151.032;2024-03-07T05:06:57;101566.67;;;28.20;58.33
81905;BME280;71370;-33.792;151.032;2024-03-07T05:08:04;101572.52;;;28.11;58.58
81905;BME280;71370;-33.792;151.032;2024-03-07T05:09:11;101572.56;;;28.03;58.81
81905;BME280;71370;-33.792;151.032;2024-03-07T05:10:29;101572.30;;;27.95;59.41
81905;BME280;71370;-33.792;151.032;2024-03-07T05:11:37;101574.06;;;27.87;59.45
81905;BME280;71370;-33.792;151.032;2024-03-07T05:12:44;101571.49;;;27.83;59.85
81905;BME280;71370;-33.792;151.032;2024-03-07T05:13:51;101573.16;;;27.77;59.85
81905;BME280;71370;-33.792;151.032;2024-03-07T05:14:58;101572.38;;;27.73;59.83
81905;BME280;71370;-33.792;151.032;2024-03-07T05:16:06;101576.16;;;27.68;60.06
81905;BME280;71370;-33.792;151.032;2024-03-07T05:17:13;101575.15;;;27.65;60.28
81905;BME280;71370;-33.792;151.032;2024-03-07T05:18:20;101572.31;;;27.59;60.34
81905;BME280;71370;-33.792;151.032;2024-03-07T05:19:28;101569.23;;;27.54;60.28
81905;BME280;71370;-33.792;151.032;2024-03-07T05:20:35;101566.15;;;27.49;60.67
81905;BME280;71370;-33.792;151.032;2024-03-07T05:21:43;101567.80;;;27.44;60.66
81905;BME280;71370;-33.792;151.032;2024-03-07T05:22:50;101571.09;;;27.38;60.96
81905;BME280;71370;-33.792;151.032;2024-03-07T05:23:57;101572.67;;;27.31;61.06
81905;BME280;71370;-33.792;151.032;2024-03-07T05:25:04;101570.23;;;27.25;61.08
81905;BME280;71370;-33.792;151.032;2024-03-07T05:26:12;101572.75;;;27.19;61.30
81905;BME280;71370;-33.792;151.032;2024-03-07T05:27:20;101569.93;;;27.13;61.46
81905;BME280;71370;-33.792;151.032;2024-03-07T05:28:27;101570.36;;;27.07;61.69
81905;BME280;71370;-33.792;151.032;2024-03-07T05:29:35;101575.20;;;27.03;61.85
81905;BME280;71370;-33.792;151.032;2024-03-07T05:30:43;101574.94;;;26.98;61.94
81905;BME280;71370;-33.792;151.032;2024-03-07T05:31:51;101575.98;;;26.96;62.05
81905;BME280;71370;-33.792;151.032;2024-03-07T05:32:58;101577.42;;;26.96;62.49
81905;BME280;71370;-33.792;151.032;2024-03-07T05:34:08;101578.99;;;26.95;62.50
81905;BME280;71370;-33.792;151.032;2024-03-07T05:35:15;101579.77;;;26.91;62.29
81905;BME280;71370;-33.792;151.032;2024-03-07T05:36:22;101578.00;;;26.88;62.52
81905;BME280;71370;-33.792;151.032;2024-03-07T05:37:29;101578.66;;;26.86;62.55
81905;BME280;71370;-33.792;151.032;2024-03-07T05:38:38;101576.77;;;26.85;62.82
81905;BME280;71370;-33.792;151.032;2024-03-07T05:39:45;101579.78;;;26.83;62.79
81905;BME280;71370;-33.792;151.032;2024-03-07T05:40:52;101581.66;;;26.82;63.01
81905;BME280;71370;-33.792;151.032;2024-03-07T05:41:59;101582.61;;;26.82;63.08